Time;durP1;ratioP1;P1;durP2;ratioP2;P2;SDS_P1;SDS_P2;PMS_P1;PMS_P2;Temp;Humidity;BMP_temperature;BMP_pressure;BME280_temperature;BME280_humidity;BME280_pressure;Samples;Min_cycle;Max_cycle;Signal;HPM_P1;HPM_P2
2021/06/04 04:50:59;;;;;;;;;;;16.60;99.90;;;;;;5699531;23;20269;-68
2021/06/04 04:53:26;;;;;;;;;;;16.60;99.90;;;;;;4953228;28;19922;-69
2021/06/04 04:55:53;;;;;;;;;;;16.60;99.90;;;;;;4951891;29;19954;-68
2021/06/04 04:58:20;;;;;;;;;;;16.60;99.90;;;;;;4953909;28;19961;-68
2021/06/04 05:00:47;;;;;;;;;;;16.70;99.90;;;;;;4953788;28;19962;-68
2021/06/04 05:03:14;;;;;;;;;;;16.70;99.90;;;;;;4954157;28;19948;-69
2021/06/04 05:05:40;;;;;;;;;;;16.80;99.90;;;;;;4954162;29;20479;-68
2021/06/04 05:08:08;;;;;;;;;;;16.80;99.90;;;;;;4954444;28;19976;-68
2021/06/04 05:10:35;;;;;;;;;;;16.90;99.90;;;;;;4952129;29;19929;-68
2021/06/04 05:13:02;;;;;;;;;;;17.00;99.90;;;;;;4952539;29;20297;-68
2021/06/04 05:15:31;;;;;;;;;;;17.20;99.90;;;;;;4953853;29;20021;-68
2021/06/04 05:17:57;;;;;;;;;;;17.40;99.90;;;;;;4953532;28;20434;-68
2021/06/04 05:20:24;;;;;;;;;;;17.60;99.90;;;;;;4953431;28;19922;-69
2021/06/04 05:22:51;;;;;;;;;;;17.80;99.90;;;;;;4953390;29;19926;-69
2021/06/04 05:25:20;;;;;;;;;;;18.10;99.90;;;;;;4953309;29;20016;-69
2021/06/04 05:27:47;;;;;;;;;;;18.40;99.90;;;;;;4953593;29;19922;-69
2021/06/04 05:30:14;;;;;;;;;;;18.50;99.90;;;;;;4953286;29;19969;-69
2021/06/04 05:32:41;;;;;;;;;;;18.50;99.90;;;;;;4953240;28;19927;-68
2021/06/04 05:35:08;;;;;;;;;;;18.90;99.90;;;;;;4953437;28;19929;-69
2021/06/04 05:37:35;;;;;;;;;;;19.00;99.90;;;;;;4953320;29;19969;-69
2021/06/04 05:40:01;;;;;;;;;;;19.30;99.90;;;;;;4953070;29;19926;-69
2021/06/04 05:42:29;;;;;;;;;;;19.50;99.90;;;;;;4951766;29;20000;-69
2021/06/04 05:44:55;;;;;;;;;;;19.40;99.90;;;;;;4950812;28;20337;-69
2021/06/04 05:47:22;;;;;;;;;;;19.40;99.90;;;;;;4952817;28;20401;-69
2021/06/04 05:49:50;;;;;;;;;;;19.30;99.90;;;;;;4952731;29;20416;-69
2021/06/04 05:52:16;;;;;;;;;;;19.30;99.90;;;;;;4952388;29;20009;-69
2021/06/04 05:54:44;;;;;;;;;;;19.20;99.90;;;;;;4952661;29;20413;-68
2021/06/04 05:57:10;;;;;;;;;;;19.20;99.90;;;;;;4951164;29;19969;-69
2021/06/04 05:59:38;;;;;;;;;;;19.10;99.90;;;;;;4951116;29;19926;-69
2021/06/04 06:02:04;;;;;;;;;;;19.00;99.90;;;;;;4955140;29;19945;-68
2021/06/04 06:04:31;;;;;;;;;;;19.00;99.90;;;;;;4953999;29;19926;-68
2021/06/04 06:06:57;;;;;;;;;;;19.10;99.90;;;;;;4952753;29;20025;-69
2021/06/04 06:09:24;;;;;;;;;;;19.00;99.90;;;;;;4951561;28;20457;-69
2021/06/04 06:11:50;;;;;;;;;;;19.00;99.90;;;;;;4933547;29;19958;-69
2021/06/04 06:14:16;;;;;;;;;;;19.10;99.90;;;;;;4932337;29;19933;-69
2021/06/04 06:16:44;;;;;;;;;;;19.10;99.90;;;;;;4933327;29;20018;-70
2021/06/04 06:19:12;;;;;;;;;;;19.20;99.90;;;;;;4933466;29;20018;-70
2021/06/04 06:21:39;;;;;;;;;;;19.20;99.90;;;;;;4933236;29;19926;-69
2021/06/04 06:24:06;;;;;;;;;;;19.30;99.90;;;;;;4933452;29;20069;-69
2021/06/04 06:26:32;;;;;;;;;;;19.40;99.90;;;;;;4932999;29;19923;-70
2021/06/04 06:29:00;;;;;;;;;;;19.50;99.90;;;;;;4932886;29;20387;-68
2021/06/04 06:31:27;;;;;;;;;;;19.60;99.90;;;;;;4932797;29;20379;-69
2021/06/04 06:33:55;;;;;;;;;;;19.50;99.90;;;;;;4932974;29;19927;-69
2021/06/04 06:36:26;;;;;;;;;;;19.60;99.90;;;;;;4932988;29;19926;-70
2021/06/04 06:38:52;;;;;;;;;;;19.80;99.90;;;;;;4932696;29;20371;-69
2021/06/04 06:41:19;;;;;;;;;;;20.10;99.90;;;;;;4932342;29;20026;-70
2021/06/04 06:43:47;;;;;;;;;;;20.20;99.90;;;;;;4932873;29;19922;-69
2021/06/04 06:46:16;;;;;;;;;;;20.20;99.90;;;;;;4931586;29;19923;-69
2021/06/04 06:48:42;;;;;;;;;;;20.50;99.90;;;;;;4932695;29;20004;-69
2021/06/04 06:51:10;;;;;;;;;;;20.50;99.90;;;;;;4932316;29;20399;-70
2021/06/04 06:53:37;;;;;;;;;;;20.90;99.90;;;;;;4932503;29;19968;-69
2021/06/04 06:56:04;;;;;;;;;;;21.00;99.90;;;;;;4931895;29;20001;-69
2021/06/04 06:58:31;;;;;;;;;;;21.20;99.90;;;;;;4932947;29;19954;-68
2021/06/04 07:00:58;;;;;;;;;;;21.50;99.90;;;;;;4932666;29;20013;-71
2021/06/04 07:03:27;;;;;;;;;;;21.70;99.90;;;;;;4932379;29;20421;-69
2021/06/04 07:05:54;;;;;;;;;;;21.80;99.90;;;;;;4932205;29;19981;-70
2021/06/04 07:08:22;;;;;;;;;;;21.80;99.90;;;;;;4932266;29;19950;-70
2021/06/04 07:10:49;;;;;;;;;;;21.60;99.90;;;;;;4945832;29;19985;-69
2021/06/04 07:13:17;;;;;;;;;;;21.70;99.90;;;;;;4950772;29;20402;-69
2021/06/04 07:15:43;;;;;;;;;;;21.80;99.90;;;;;;4950700;29;19929;-70
2021/06/04 07:18:10;;;;;;;;;;;21.80;99.90;;;;;;4951164;29;20018;-70
2021/06/04 07:20:37;;;;;;;;;;;21.70;99.90;;;;;;4949265;29;19969;-70
2021/06/04 07:23:04;;;;;;;;;;;22.00;99.90;;;;;;4949865;29;19923;-70
2021/06/04 07:25:33;;;;;;;;;;;22.10;99.90;;;;;;4950327;29;20402;-71
2021/06/04 07:27:59;;;;;;;;;;;22.10;99.90;;;;;;4951183;29;20536;-70
2021/06/04 07:30:30;;;;;;;;;;;22.20;99.90;;;;;;4951254;29;20345;-71
2021/06/04 07:32:56;;;;;;;;;;;22.40;99.90;;;;;;4945626;29;19926;-70
2021/06/04 07:35:24;;;;;;;;;;;22.40;99.90;;;;;;4943742;29;19957;-71
2021/06/04 07:37:51;;;;;;;;;;;22.30;99.90;;;;;;4942230;29;20283;-71
2021/06/04 07:40:19;;;;;;;;;;;22.10;99.90;;;;;;4950255;28;19922;-66
2021/06/04 07:42:47;;;;;;;;;;;22.20;99.90;;;;;;4944950;29;19923;-69
2021/06/04 07:45:14;;;;;;;;;;;23.50;99.90;;;;;;4945466;29;19938;-72
2021/06/04 07:47:40;;;;;;;;;;;24.70;99.90;;;;;;4940084;29;20337;-72
2021/06/04 07:50:07;;;;;;;;;;;26.10;99.90;;;;;;4951389;29;19966;-71
2021/06/04 07:52:34;;;;;;;;;;;26.80;99.90;;;;;;4949368;29;19923;-69
2021/06/04 07:55:00;;;;;;;;;;;26.30;99.90;;;;;;4949893;28;19922;-69
2021/06/04 07:57:27;;;;;;;;;;;26.50;99.90;;;;;;4946409;29;20470;-68
2021/06/04 07:59:54;;;;;;;;;;;25.80;99.90;;;;;;4950372;28;20398;-69
2021/06/04 08:02:21;;;;;;;;;;;25.10;99.90;;;;;;4948895;28;20375;-69
2021/06/04 08:04:47;;;;;;;;;;;25.60;99.90;;;;;;4947932;29;19929;-69
2021/06/04 08:07:14;;;;;;;;;;;25.60;99.90;;;;;;4950535;28;20361;-69
2021/06/04 08:09:42;;;;;;;;;;;26.30;99.90;;;;;;4954304;29;20412;-70
2021/06/04 08:12:10;;;;;;;;;;;26.30;99.90;;;;;;4937973;29;20402;-69
2021/06/04 08:14:37;;;;;;;;;;;26.30;99.90;;;;;;4934306;29;20345;-69
2021/06/04 08:17:06;;;;;;;;;;;26.00;99.90;;;;;;4952675;29;19977;-71
2021/06/04 08:19:35;;;;;;;;;;;26.30;99.90;;;;;;4950979;29;20303;-70
2021/06/04 08:22:03;;;;;;;;;;;26.60;99.90;;;;;;4938282;28;19926;-70
2021/06/04 08:24:30;;;;;;;;;;;27.80;99.90;;;;;;4933833;29;20370;-69
2021/06/04 08:26:57;;;;;;;;;;;28.40;99.90;;;;;;4936810;29;20025;-70
2021/06/04 08:29:25;;;;;;;;;;;28.50;99.90;;;;;;4948395;29;19922;-71
2021/06/04 08:31:52;;;;;;;;;;;28.70;99.90;;;;;;4934937;29;19952;-70
2021/06/04 08:34:20;;;;;;;;;;;29.10;99.90;;;;;;4940637;29;20435;-71
2021/06/04 08:36:48;;;;;;;;;;;28.70;99.90;;;;;;4946727;29;20309;-72
2021/06/04 08:39:18;;;;;;;;;;;29.00;99.90;;;;;;4948272;29;19922;-72
2021/06/04 08:41:46;;;;;;;;;;;29.20;99.90;;;;;;4949748;29;19933;-72
2021/06/04 08:44:22;;;;;;;;;;;29.40;99.90;;;;;;4953972;29;19926;-71
2021/06/04 08:46:52;;;;;;;;;;;29.80;99.90;;;;;;4951642;29;19937;-71
2021/06/04 08:49:22;;;;;;;;;;;28.90;99.90;;;;;;4954400;29;19922;-72
2021/06/04 08:51:55;;;;;;;;;;;29.00;99.90;;;;;;4939245;29;20378;-71
2021/06/04 08:54:32;;;;;;;;;;;29.20;99.90;;;;;;4949533;29;19930;-72
2021/06/04 08:57:03;;;;;;;;;;;28.80;99.90;;;;;;4953697;29;19927;-72
2021/06/04 08:59:31;;;;;;;;;;;27.80;99.90;;;;;;4954485;29;19957;-70
2021/06/04 09:01:59;;;;;;;;;;;29.20;99.90;;;;;;4938657;29;19922;-71
2021/06/04 09:04:28;;;;;;;;;;;28.10;99.90;;;;;;4953393;28;19926;-72
2021/06/04 09:07:00;;;;;;;;;;;28.20;99.90;;;;;;4952641;29;19922;-71
2021/06/04 09:09:30;;;;;;;;;;;28.60;99.90;;;;;;4951733;29;20408;-72
2021/06/04 09:11:57;;;;;;;;;;;28.20;99.90;;;;;;4937005;29;19933;-71
2021/06/04 09:14:24;;;;;;;;;;;28.90;99.90;;;;;;4946469;29;19933;-72
2021/06/04 09:16:56;;;;;;;;;;;29.30;99.90;;;;;;4953138;29;19973;-71
2021/06/04 09:19:25;;;;;;;;;;;28.90;99.90;;;;;;4943989;28;20453;-72
2021/06/04 09:21:53;;;;;;;;;;;30.00;99.90;;;;;;4953396;28;20307;-72
2021/06/04 09:24:22;;;;;;;;;;;29.50;99.90;;;;;;4953600;29;19981;-71
2021/06/04 09:26:48;;;;;;;;;;;30.10;99.90;;;;;;4952957;29;19937;-71
2021/06/04 09:29:17;;;;;;;;;;;29.80;99.90;;;;;;4952762;29;19926;-71
2021/06/04 09:31:46;;;;;;;;;;;29.50;99.90;;;;;;4948256;29;19970;-70
2021/06/04 09:34:14;;;;;;;;;;;29.80;99.90;;;;;;4947857;29;19927;-71
2021/06/04 09:36:46;;;;;;;;;;;30.50;99.90;;;;;;4949456;29;19923;-70
2021/06/04 09:39:22;;;;;;;;;;;30.40;99.90;;;;;;4953107;28;19926;-71
2021/06/04 09:41:49;;;;;;;;;;;30.00;99.90;;;;;;4951658;29;20021;-71
2021/06/04 09:44:26;;;;;;;;;;;30.10;99.90;;;;;;4952976;29;20493;-71
2021/06/04 09:46:55;;;;;;;;;;;29.30;99.90;;;;;;4952627;28;20302;-71
2021/06/04 09:49:29;;;;;;;;;;;30.40;99.90;;;;;;4950524;29;19933;-70
2021/06/04 09:52:13;;;;;;;;;;;29.70;99.90;;;;;;4946877;28;20482;-70
2021/06/04 09:54:41;;;;;;;;;;;28.80;99.90;;;;;;4945365;29;19927;-70
2021/06/04 09:57:09;;;;;;;;;;;28.50;99.90;;;;;;4946518;29;19937;-70
